map of KWL home
KWL - Airport
Location
City:  Guilin, Guangxi, China
Name:Liangjiang International Airport
ICAO:ZGKL
IATA:KWL

Details
Type:Airport (Aerodrome, Airfield)
Use:Public/Civil, International (customs port of entry)
Latitude:2513'N (25.217)
Longitude:11002'E (110.038)
Elevation:571 ft (174 m)
Variation:2.74W (WMM2015v2 magnetic declination)
-0.07 annual change
Runways:1
Longest:10499 × 148 ft (3200 × 45 m), paved

Time
Time Zone:UTC+8
Local Time:

Weather
METAR:ZGKL 041400Z VRB02MPS 6000 BKN033 OVC050 13/05 Q1020 NOSIG

Related Locations
Nearby:
Farthest:SCUA: 12419 mi / 19986 km
Taltal [Guanaco Airport], AN, CL

Find:

   beyond  
but within

Other Information
Maps:
NOTAMs:
Links:
Sources:

  
  • flag of China
  

Sectional Chart

Flight Planning
at skyvector.com

Satellite Image

Google Maps Satellite view

 

Copyright © 2004-2019 Karl L. Swartz. All rights reserved.
The Great Circle Mapper name and logo are trademarks of the Great Circle Mapper.
All other trademarks mentioned herein belong to their respective owners.
Please see credits for attibutions and further copyright information.

  Follow gcmap on Facebook Follow gcmap on Twitter GCmap on LinkedIn

hCard Microformat

Geo Microformat